createdAt,value
2024-05-09T00:00:46.879Z,98.74
2024-05-09T00:03:14.346Z,98.70
2024-05-09T00:05:42.740Z,98.47
2024-05-09T00:08:11.197Z,98.72
2024-05-09T00:10:40.526Z,98.38
2024-05-09T00:13:09.768Z,98.32
2024-05-09T00:15:37.513Z,98.28
2024-05-09T00:18:07.293Z,98.26
2024-05-09T00:20:39.580Z,98.29
2024-05-09T00:23:13.997Z,98.51
2024-05-09T00:25:43.423Z,97.85
2024-05-09T00:28:14.482Z,97.63
2024-05-09T00:30:42.150Z,97.22
2024-05-09T00:33:10.888Z,97.25
2024-05-09T00:35:39.428Z,96.69
2024-05-09T00:38:07.254Z,96.55
2024-05-09T00:40:40.186Z,95.99
2024-05-09T00:43:11.884Z,95.46
2024-05-09T00:45:39.784Z,95.03
2024-05-09T00:48:09.520Z,94.60
2024-05-09T00:50:41.773Z,94.76
2024-05-09T00:53:15.493Z,95.00
2024-05-09T00:55:43.609Z,95.17
2024-05-09T00:58:12.748Z,94.92
2024-05-09T01:00:41.591Z,94.56
2024-05-09T01:03:12.122Z,94.65
2024-05-09T01:05:42.086Z,94.15
2024-05-09T01:08:10.510Z,93.35
2024-05-09T01:10:38.677Z,93.04
2024-05-09T01:13:07.047Z,93.29
2024-05-09T01:15:35.706Z,92.75
2024-05-09T01:18:11.051Z,92.73
2024-05-09T01:20:42.842Z,92.93
2024-05-09T01:23:14.802Z,92.79
2024-05-09T01:25:45.622Z,92.69
2024-05-09T01:28:13.842Z,92.45
2024-05-09T01:30:41.950Z,92.96
2024-05-09T01:33:11.095Z,92.60
2024-05-09T01:35:42.258Z,91.76
2024-05-09T01:38:14.292Z,91.42
2024-05-09T01:40:41.753Z,91.46
2024-05-09T01:43:10.198Z,91.44
2024-05-09T01:45:38.911Z,90.08
2024-05-09T01:48:07.435Z,89.42
2024-05-09T01:50:39.588Z,88.68
2024-05-09T01:53:13.188Z,88.31
2024-05-09T01:55:40.914Z,87.87
2024-05-09T01:58:09.092Z,88.29
2024-05-09T02:00:40.861Z,88.36
2024-05-09T02:03:13.925Z,88.75
2024-05-09T02:05:44.794Z,88.75
2024-05-09T02:08:17.200Z,88.81
2024-05-09T02:10:45.139Z,88.22
2024-05-09T02:13:13.556Z,88.49
2024-05-09T02:15:41.174Z,88.74
2024-05-09T02:18:09.225Z,88.52
2024-05-09T02:20:39.300Z,88.92
2024-05-09T02:23:07.342Z,88.89
2024-05-09T02:25:34.973Z,88.64
2024-05-09T02:28:02.577Z,87.88
2024-05-09T02:30:38.159Z,87.56
2024-05-09T02:33:11.308Z,87.26
2024-05-09T02:35:40.877Z,86.89
2024-05-09T02:38:09.937Z,86.52
2024-05-09T02:40:39.247Z,86.72
2024-05-09T02:43:08.874Z,86.57
2024-05-09T02:45:37.748Z,86.61
2024-05-09T02:48:05.892Z,86.42
2024-05-09T02:50:38.318Z,86.86
2024-05-09T02:53:09.225Z,86.40
2024-05-09T02:55:38.236Z,85.78
2024-05-09T02:58:08.930Z,85.56
2024-05-09T03:00:40.230Z,85.15
2024-05-09T03:03:14.823Z,85.42
2024-05-09T03:05:44.837Z,84.89
2024-05-09T03:08:13.090Z,84.68
2024-05-09T03:10:40.591Z,84.84
2024-05-09T03:13:08.385Z,85.04
2024-05-09T03:15:36.442Z,85.01
2024-05-09T03:18:05.426Z,84.56
2024-05-09T03:20:35.480Z,84.32
2024-05-09T03:23:05.507Z,84.46
2024-05-09T03:25:34.337Z,84.49
2024-05-09T03:28:01.854Z,84.06
2024-05-09T03:30:36.274Z,83.63
2024-05-09T03:33:13.934Z,82.31
2024-05-09T03:35:43.019Z,82.46
2024-05-09T03:38:10.476Z,81.47
2024-05-09T03:40:48.013Z,81.40
2024-05-09T03:43:16.307Z,81.09
2024-05-09T03:45:43.896Z,80.17
2024-05-09T03:48:11.459Z,80.11
2024-05-09T03:50:39.109Z,80.28
2024-05-09T03:53:07.311Z,79.22
2024-05-09T03:55:34.940Z,78.26
2024-05-09T03:58:02.142Z,76.31
2024-05-09T04:00:36.898Z,75.89
2024-05-09T04:03:09.049Z,75.66
2024-05-09T04:05:42.971Z,75.69
2024-05-09T04:08:15.294Z,75.83
2024-05-09T04:10:43.357Z,75.45
2024-05-09T04:13:11.197Z,73.23
2024-05-09T04:15:39.235Z,72.25
2024-05-09T04:18:07.062Z,72.33
2024-05-09T04:20:39.002Z,71.90
2024-05-09T04:23:13.073Z,72.15
2024-05-09T04:25:43.278Z,72.26
2024-05-09T04:28:11.041Z,72.01
2024-05-09T04:30:40.867Z,71.96
2024-05-09T04:33:14.298Z,70.88
2024-05-09T04:35:45.785Z,70.11
2024-05-09T04:38:14.660Z,69.08
2024-05-09T04:40:42.719Z,69.07
2024-05-09T04:43:19.190Z,68.71
2024-05-09T04:45:46.801Z,68.49
2024-05-09T04:48:14.427Z,68.79
2024-05-09T04:50:42.222Z,68.91
2024-05-09T04:53:11.101Z,67.78
2024-05-09T04:55:40.725Z,65.72
2024-05-09T04:58:12.076Z,65.69
2024-05-09T05:00:40.920Z,65.64
2024-05-09T05:03:13.450Z,65.15
2024-05-09T05:05:44.978Z,64.67
2024-05-09T05:08:15.494Z,65.85
2024-05-09T05:10:44.080Z,66.95
2024-05-09T05:13:23.283Z,67.33
2024-05-09T05:15:57.371Z,67.74
2024-05-09T05:18:27.414Z,64.62
2024-05-09T05:20:56.254Z,64.31
2024-05-09T05:23:24.103Z,63.63
2024-05-09T05:25:55.371Z,63.40
2024-05-09T05:28:23.839Z,63.86
2024-05-09T05:30:51.308Z,63.08
2024-05-09T05:33:19.653Z,63.50
2024-05-09T05:35:47.435Z,63.63
2024-05-09T05:38:15.119Z,63.25
2024-05-09T05:40:42.897Z,62.60
2024-05-09T05:43:17.609Z,62.53
2024-05-09T05:45:45.891Z,63.07
2024-05-09T05:48:16.874Z,62.75
2024-05-09T05:50:45.247Z,63.46
2024-05-09T05:53:12.704Z,63.72
2024-05-09T05:55:41.048Z,64.38
2024-05-09T05:58:12.522Z,63.71
2024-05-09T06:00:42.391Z,61.97
2024-05-09T06:03:12.676Z,60.41
2024-05-09T06:05:41.225Z,59.09
2024-05-09T06:08:09.380Z,59.49
2024-05-09T06:10:39.871Z,59.33
2024-05-09T06:13:12.192Z,58.83
2024-05-09T06:15:40.831Z,56.97
2024-05-09T06:18:09.716Z,56.32
2024-05-09T06:20:40.212Z,55.61
2024-05-09T06:23:10.270Z,56.43
2024-05-09T06:25:38.117Z,57.07
2024-05-09T06:28:06.261Z,57.91
2024-05-09T06:30:40.134Z,57.88
2024-05-09T06:33:11.933Z,58.11
2024-05-09T06:35:41.411Z,57.38
2024-05-09T06:38:09.516Z,56.48
2024-05-09T06:40:41.014Z,55.62
2024-05-09T06:43:16.379Z,55.17
2024-05-09T06:45:47.878Z,53.34
2024-05-09T06:48:21.744Z,52.18
2024-05-09T06:50:50.557Z,52.90
2024-05-09T06:53:22.267Z,51.96
2024-05-09T06:55:50.030Z,51.59
2024-05-09T06:58:17.359Z,51.37
2024-05-09T07:00:45.978Z,50.80
2024-05-09T07:03:19.422Z,50.35
2024-05-09T07:05:49.162Z,50.61
2024-05-09T07:08:17.729Z,51.84
2024-05-09T07:10:46.357Z,53.07
2024-05-09T07:13:15.491Z,52.61
2024-05-09T07:15:44.999Z,51.32
2024-05-09T07:18:17.134Z,52.44
2024-05-09T07:20:46.724Z,50.15
2024-05-09T07:23:14.943Z,49.94
2024-05-09T07:25:42.544Z,48.85
2024-05-09T07:28:16.576Z,49.23
2024-05-09T07:30:44.041Z,50.51
2024-05-09T07:33:19.365Z,51.74
2024-05-09T07:35:48.160Z,51.90
2024-05-09T07:38:16.314Z,51.42
2024-05-09T07:40:43.994Z,50.71
2024-05-09T07:43:12.054Z,50.05
2024-05-09T07:45:48.916Z,48.39
2024-05-09T07:52:39.122Z,46.76
2024-05-09T07:53:47.776Z,47.45
2024-05-09T07:56:21.768Z,47.44
2024-05-09T07:58:54.432Z,48.08
2024-05-09T08:01:22.092Z,46.90
2024-05-09T08:03:51.047Z,48.26
2024-05-09T08:06:18.500Z,47.25
2024-05-09T08:08:47.611Z,49.31
2024-05-09T08:11:16.382Z,50.20
2024-05-09T08:13:44.463Z,51.91
2024-05-09T08:16:13.557Z,50.75
2024-05-09T08:18:41.167Z,52.00
2024-05-09T08:21:09.186Z,50.77
2024-05-09T08:23:36.696Z,47.41
2024-05-09T08:26:04.060Z,44.56
2024-05-09T08:28:32.944Z,46.42
2024-05-09T08:31:03.152Z,46.50
2024-05-09T08:33:33.020Z,46.16
2024-05-09T08:36:01.220Z,44.32
2024-05-09T08:38:28.595Z,41.17
2024-05-09T08:40:57.117Z,38.07
2024-05-09T08:43:25.314Z,37.20
2024-05-09T08:45:52.771Z,37.40
2024-05-09T08:48:21.223Z,38.45
2024-05-09T08:50:52.554Z,39.64
2024-05-09T08:53:20.763Z,40.23
2024-05-09T08:55:49.515Z,40.22
2024-05-09T08:58:19.931Z,38.61
2024-05-09T09:00:49.188Z,37.78
2024-05-09T09:03:24.397Z,35.68
2024-05-09T09:05:57.543Z,36.73
2024-05-09T09:08:27.327Z,35.76
2024-05-09T09:10:58.881Z,36.56
2024-05-09T09:13:28.151Z,37.63
2024-05-09T09:15:59.174Z,38.54
2024-05-09T09:18:34.829Z,39.35
2024-05-09T09:21:03.395Z,39.59
2024-05-09T09:23:32.928Z,39.85
2024-05-09T09:26:00.925Z,39.77
2024-05-09T09:28:28.417Z,37.67
2024-05-09T09:31:03.760Z,35.27
2024-05-09T09:33:33.386Z,34.13
2024-05-09T09:36:07.520Z,33.27
2024-05-09T09:38:36.764Z,34.86
2024-05-09T09:41:07.631Z,35.55
2024-05-09T09:43:37.064Z,37.41
2024-05-09T09:46:08.713Z,38.31
2024-05-09T09:48:38.444Z,39.51
2024-05-09T09:51:09.357Z,38.85
2024-05-09T09:53:43.008Z,38.69
2024-05-09T09:56:10.780Z,36.52
2024-05-09T09:58:39.392Z,35.98
2024-05-09T10:01:08.022Z,35.64
2024-05-09T10:03:36.903Z,36.78
2024-05-09T10:06:05.930Z,38.65
2024-05-09T10:08:36.033Z,39.02
2024-05-09T10:11:07.241Z,37.57
2024-05-09T10:13:37.542Z,37.92
2024-05-09T10:16:11.297Z,37.76
2024-05-09T10:18:41.693Z,37.30
2024-05-09T10:21:21.331Z,36.93
2024-05-09T10:24:00.107Z,35.00
2024-05-09T10:26:37.614Z,34.34
2024-05-09T10:29:19.711Z,32.84
2024-05-09T10:31:48.425Z,30.67
2024-05-09T10:34:25.041Z,32.32
2024-05-09T10:36:55.216Z,34.66
2024-05-09T10:39:24.743Z,35.04
2024-05-09T10:41:52.913Z,36.17
2024-05-09T10:44:23.180Z,36.91
2024-05-09T10:46:51.814Z,34.40
2024-05-09T10:49:20.921Z,32.22
2024-05-09T10:51:48.864Z,33.57
2024-05-09T10:54:17.102Z,34.40
2024-05-09T10:56:44.373Z,32.90
2024-05-09T10:59:14.276Z,33.78
2024-05-09T11:01:42.261Z,35.13
2024-05-09T11:04:10.470Z,34.66
2024-05-09T11:06:39.973Z,34.89
2024-05-09T11:09:08.973Z,35.45
2024-05-09T11:14:21.270Z,34.25
2024-05-09T11:17:01.936Z,34.87
2024-05-09T11:19:31.831Z,33.02
2024-05-09T11:22:05.204Z,31.82
2024-05-09T11:24:35.267Z,34.57
2024-05-09T11:27:04.187Z,33.74
2024-05-09T11:29:40.120Z,34.48
2024-05-09T11:32:09.406Z,33.73
2024-05-09T11:34:36.731Z,33.20
2024-05-09T11:37:04.576Z,32.84
2024-05-09T11:39:32.165Z,30.51
2024-05-09T11:42:00.110Z,30.90
2024-05-09T11:44:27.936Z,31.93
2024-05-09T11:46:56.905Z,33.74
2024-05-09T11:49:26.719Z,33.75
2024-05-09T11:51:54.427Z,33.84
2024-05-09T11:54:23.157Z,34.41
2024-05-09T11:56:51.824Z,34.69
2024-05-09T11:59:20.574Z,35.82
2024-05-09T12:01:49.985Z,35.13
2024-05-09T12:04:19.881Z,34.55
2024-05-09T12:06:48.846Z,33.01
2024-05-09T12:09:16.091Z,33.47
2024-05-09T12:11:45.477Z,33.27
2024-05-09T12:14:13.655Z,35.09
2024-05-09T12:16:43.638Z,35.64
2024-05-09T12:19:14.094Z,35.45
2024-05-09T12:21:44.382Z,35.75
2024-05-09T12:24:14.407Z,35.49
2024-05-09T12:26:45.164Z,35.91
2024-05-09T12:29:12.706Z,35.61
2024-05-09T12:31:41.636Z,35.20
2024-05-09T12:34:10.159Z,35.53
2024-05-09T12:36:38.677Z,34.71
2024-05-09T12:39:09.280Z,34.55
2024-05-09T12:41:37.139Z,33.21
2024-05-09T12:44:05.951Z,33.73
2024-05-09T12:46:33.846Z,34.62
2024-05-09T12:49:04.606Z,34.93
2024-05-09T12:51:32.203Z,34.99
2024-05-09T12:54:00.945Z,34.63
2024-05-09T12:56:31.820Z,35.92
2024-05-09T12:59:01.808Z,34.74
2024-05-09T13:01:31.126Z,35.25
2024-05-09T13:03:58.824Z,36.12
2024-05-09T13:06:26.242Z,37.24
2024-05-09T13:08:54.862Z,36.37
2024-05-09T13:11:22.255Z,36.19
2024-05-09T13:13:49.595Z,35.20
2024-05-09T13:16:17.067Z,34.53
2024-05-09T13:18:46.698Z,33.11
2024-05-09T13:21:17.686Z,33.23
2024-05-09T13:23:47.066Z,33.29
2024-05-09T13:26:15.785Z,33.43
2024-05-09T13:28:43.046Z,31.74
2024-05-09T13:31:10.922Z,29.57
2024-05-09T13:33:39.894Z,30.00
2024-05-09T13:36:09.961Z,32.27
2024-05-09T13:38:40.270Z,33.88
2024-05-09T13:41:07.532Z,34.13
2024-05-09T13:43:35.061Z,34.42
2024-05-09T13:46:03.960Z,34.09
2024-05-09T13:48:32.237Z,34.51
2024-05-09T13:51:01.082Z,32.39
2024-05-09T13:53:28.276Z,31.16
2024-05-09T13:55:56.467Z,32.67
2024-05-09T13:58:25.386Z,33.85
2024-05-09T14:01:00.030Z,34.50
2024-05-09T14:03:30.230Z,33.74
2024-05-09T14:05:57.967Z,31.43
2024-05-09T14:08:25.429Z,32.89
2024-05-09T14:10:53.946Z,34.30
2024-05-09T14:13:23.117Z,34.49
2024-05-09T14:15:50.594Z,35.23
2024-05-09T14:18:19.504Z,31.65
2024-05-09T14:20:48.018Z,31.90
2024-05-09T14:23:17.459Z,34.04
2024-05-09T14:25:46.563Z,33.36
2024-05-09T14:28:19.329Z,33.09
2024-05-09T14:30:46.944Z,33.65
2024-05-09T14:33:23.694Z,34.90
2024-05-09T14:35:51.488Z,34.89
2024-05-09T14:38:18.907Z,35.33
2024-05-09T14:40:46.295Z,34.74
2024-05-09T14:43:16.189Z,33.66
2024-05-09T14:45:46.877Z,32.14
2024-05-09T14:48:16.569Z,30.37
2024-05-09T14:50:44.167Z,31.91
2024-05-09T14:53:13.536Z,33.21
2024-05-09T14:55:43.107Z,34.15
2024-05-09T14:58:12.471Z,33.96
2024-05-09T15:00:49.923Z,33.54
2024-05-09T15:03:23.378Z,33.01
2024-05-09T15:05:51.968Z,31.73
2024-05-09T15:08:20.498Z,32.81
2024-05-09T15:10:50.431Z,34.28
2024-05-09T15:13:21.276Z,34.71
2024-05-09T15:15:48.847Z,32.65
2024-05-09T15:18:17.253Z,31.71
2024-05-09T15:20:45.332Z,32.31
2024-05-09T15:23:13.643Z,32.49
2024-05-09T15:25:42.289Z,31.60
2024-05-09T15:28:09.781Z,31.22
2024-05-09T15:30:38.676Z,30.19
2024-05-09T15:33:11.284Z,29.76
2024-05-09T15:35:41.741Z,31.42
2024-05-09T15:38:12.754Z,33.29
2024-05-09T15:40:41.389Z,32.41
2024-05-09T15:43:11.190Z,32.37
2024-05-09T15:45:41.370Z,33.33
2024-05-09T15:48:12.130Z,33.88
2024-05-09T15:50:41.719Z,34.37
2024-05-09T15:53:12.676Z,36.17
2024-05-09T15:55:43.031Z,35.64
2024-05-09T15:58:12.568Z,36.04
2024-05-09T16:00:42.769Z,35.87
2024-05-09T16:03:16.988Z,35.80
2024-05-09T16:05:46.367Z,36.09
2024-05-09T16:08:15.911Z,36.01
2024-05-09T16:10:46.305Z,36.40
2024-05-09T16:13:17.549Z,36.07
2024-05-09T16:15:46.712Z,37.00
2024-05-09T16:18:15.567Z,36.83
2024-05-09T16:20:44.867Z,37.61
2024-05-09T16:23:13.881Z,37.65
2024-05-09T16:25:48.443Z,37.73
2024-05-09T16:28:17.782Z,37.87
2024-05-09T16:30:47.012Z,38.28
2024-05-09T16:33:14.707Z,38.55
2024-05-09T16:35:42.057Z,38.19
2024-05-09T16:38:09.383Z,38.30
2024-05-09T16:40:40.227Z,38.56
2024-05-09T16:43:13.118Z,38.38
2024-05-09T16:45:46.840Z,38.92
2024-05-09T16:48:16.250Z,38.88
2024-05-09T16:50:44.605Z,39.28
2024-05-09T16:53:14.581Z,39.26
2024-05-09T16:55:41.988Z,39.62
2024-05-09T16:58:12.396Z,39.47
2024-05-09T17:00:43.470Z,39.79
2024-05-09T17:03:17.911Z,39.86
2024-05-09T17:05:46.993Z,40.21
2024-05-09T17:08:16.709Z,40.47
2024-05-09T17:10:45.585Z,40.51
2024-05-09T17:13:13.414Z,40.81
2024-05-09T17:15:41.206Z,41.14
2024-05-09T17:18:10.043Z,41.00
2024-05-09T17:20:38.765Z,41.32
2024-05-09T17:23:13.716Z,41.21
2024-05-09T17:25:42.167Z,41.33
2024-05-09T17:28:11.383Z,42.14
2024-05-09T17:30:41.025Z,42.96
2024-05-09T17:33:13.206Z,42.84
2024-05-09T17:35:46.158Z,42.82
2024-05-09T17:38:14.682Z,43.42
2024-05-09T17:40:42.191Z,43.78
2024-05-09T17:43:10.901Z,44.00
2024-05-09T17:45:40.863Z,44.49
2024-05-09T17:48:10.639Z,44.35
2024-05-09T17:50:41.026Z,44.46
2024-05-09T17:53:09.302Z,45.21
2024-05-09T17:55:36.887Z,45.01
2024-05-09T17:58:05.631Z,44.66
2024-05-09T18:00:39.441Z,44.51
2024-05-09T18:03:30.415Z,44.08
2024-05-09T18:05:58.086Z,43.80
2024-05-09T18:08:25.468Z,44.35
2024-05-09T18:10:55.222Z,44.44
2024-05-09T18:13:23.211Z,45.10
2024-05-09T18:15:50.527Z,45.01
2024-05-09T18:18:17.887Z,45.21
2024-05-09T18:20:46.334Z,45.65
2024-05-09T18:23:16.158Z,45.67
2024-05-09T18:25:45.449Z,45.75
2024-05-09T18:28:13.157Z,45.63
2024-05-09T18:30:42.013Z,46.19
2024-05-09T18:33:11.546Z,46.24
2024-05-09T18:35:44.191Z,46.46
2024-05-09T18:38:14.503Z,46.92
2024-05-09T18:40:44.702Z,47.21
2024-05-09T18:43:14.334Z,47.49
2024-05-09T18:45:41.687Z,47.52
2024-05-09T18:48:12.681Z,47.74
2024-05-09T18:50:41.363Z,47.83
2024-05-09T18:53:13.294Z,47.99
2024-05-09T18:55:45.190Z,48.18
2024-05-09T18:58:12.863Z,48.80
2024-05-09T19:00:42.911Z,49.10
2024-05-09T19:03:15.184Z,49.89
2024-05-09T19:05:45.032Z,49.69
2024-05-09T19:08:15.518Z,49.81
2024-05-09T19:10:45.951Z,50.19
2024-05-09T19:13:15.650Z,50.77
2024-05-09T19:15:43.960Z,50.60
2024-05-09T19:18:14.530Z,50.97
2024-05-09T19:20:42.887Z,51.17
2024-05-09T19:23:11.992Z,51.71
2024-05-09T19:25:40.531Z,51.83
2024-05-09T19:28:08.147Z,50.79
2024-05-09T19:30:40.682Z,51.89
2024-05-09T19:33:13.113Z,51.77
2024-05-09T19:35:41.948Z,51.75
2024-05-09T19:38:10.834Z,51.94
2024-05-09T19:40:38.160Z,52.28
2024-05-09T19:43:07.301Z,51.64
2024-05-09T19:45:36.682Z,51.69
2024-05-09T19:48:05.451Z,52.00
2024-05-09T19:50:41.261Z,51.88
2024-05-09T19:53:13.700Z,51.77
2024-05-09T19:55:41.905Z,51.74
2024-05-09T19:58:10.927Z,51.43
2024-05-09T20:00:41.391Z,51.34
2024-05-09T20:03:12.042Z,51.72
2024-05-09T20:05:39.945Z,52.06
2024-05-09T20:08:09.682Z,52.33
2024-05-09T20:10:37.726Z,52.61
2024-05-09T20:13:08.933Z,52.47
2024-05-09T20:15:38.061Z,53.13
2024-05-09T20:18:08.904Z,53.58
2024-05-09T20:20:41.518Z,53.56
2024-05-09T20:23:13.487Z,54.16
2024-05-09T20:25:42.960Z,54.09
2024-05-09T20:32:46.708Z,55.25
2024-05-09T20:35:15.369Z,55.54
2024-05-09T20:37:46.992Z,55.69
2024-05-09T20:40:21.230Z,55.82
2024-05-09T20:42:53.218Z,56.07
2024-05-09T20:45:20.648Z,55.78
2024-05-09T20:47:49.912Z,55.54
2024-05-09T20:50:27.849Z,56.24
2024-05-09T20:53:03.716Z,56.60
2024-05-09T20:55:31.131Z,56.82
2024-05-09T20:57:59.289Z,57.08
2024-05-09T21:00:35.150Z,56.52
2024-05-09T21:03:07.808Z,57.00
2024-05-09T21:05:35.853Z,57.41
2024-05-09T21:08:03.413Z,56.99
2024-05-09T21:10:33.555Z,56.38
2024-05-09T21:13:03.354Z,56.83
2024-05-09T21:15:32.969Z,56.88
2024-05-09T21:18:00.429Z,56.33
2024-05-09T21:20:31.580Z,55.91
2024-05-09T21:23:01.892Z,55.70
2024-05-09T21:25:29.723Z,55.56
2024-05-09T21:27:57.175Z,55.56
2024-05-09T21:30:36.802Z,55.31
2024-05-09T21:33:10.600Z,54.85
2024-05-09T21:35:40.306Z,54.98
2024-05-09T21:38:07.939Z,54.53
2024-05-09T21:40:36.641Z,54.68
2024-05-09T21:43:05.621Z,54.53
2024-05-09T21:45:34.038Z,54.62
2024-05-09T21:48:04.848Z,55.16
2024-05-09T21:50:39.338Z,55.50
2024-05-09T21:53:09.869Z,56.41
2024-05-09T21:55:37.316Z,55.86
2024-05-09T21:58:04.864Z,55.63
2024-05-09T22:00:36.831Z,55.82
2024-05-09T22:03:07.673Z,56.05
2024-05-09T22:08:20.462Z,55.92
2024-05-09T22:10:47.925Z,55.34
2024-05-09T22:13:17.181Z,55.67
2024-05-09T22:15:44.805Z,55.75
2024-05-09T22:18:12.247Z,55.66
2024-05-09T22:20:46.816Z,55.62
2024-05-09T22:23:15.671Z,55.61
2024-05-09T22:25:42.982Z,55.33
2024-05-09T22:28:10.390Z,55.26
2024-05-09T22:30:39.866Z,55.72
2024-05-09T22:33:09.749Z,56.04
2024-05-09T22:35:38.614Z,56.40
2024-05-09T22:38:06.142Z,55.92
2024-05-09T22:40:43.278Z,55.28
2024-05-09T22:43:24.002Z,55.10
2024-05-09T22:45:55.157Z,55.59
2024-05-09T22:48:24.557Z,55.21
2024-05-09T22:50:52.445Z,55.09
2024-05-09T22:53:22.241Z,55.04
2024-05-09T22:55:49.728Z,54.34
2024-05-09T22:58:17.216Z,54.97
2024-05-09T23:00:44.645Z,55.26
2024-05-09T23:03:12.079Z,55.21
2024-05-09T23:05:39.481Z,55.11
2024-05-09T23:08:07.391Z,54.97
2024-05-09T23:10:37.709Z,55.29
2024-05-09T23:13:07.375Z,54.32
2024-05-09T23:15:37.028Z,54.53
2024-05-09T23:18:04.721Z,54.46
2024-05-09T23:20:37.466Z,54.34
2024-05-09T23:23:07.762Z,54.10
2024-05-09T23:25:35.266Z,54.28
2024-05-09T23:28:02.835Z,54.61
2024-05-09T23:30:37.413Z,54.79
2024-05-09T23:33:08.494Z,54.77
2024-05-09T23:35:36.279Z,55.26
2024-05-09T23:38:04.290Z,55.29
2024-05-09T23:40:38.119Z,54.95
2024-05-09T23:43:09.223Z,55.27
2024-05-09T23:45:37.342Z,55.66
2024-05-09T23:48:05.537Z,55.15
2024-05-09T23:50:36.570Z,54.44
2024-05-09T23:53:07.779Z,54.71
2024-05-09T23:55:36.314Z,54.79
2024-05-09T23:58:04.031Z,54.68
